Orient Point, New York
Current Conditions -  °F | °C
As of 11:20 AM on Sunday 21 Dec 2014 (Local Time) from KGON Reporting Station
Haze Haze  
Wind Chill: 30°   Ceiling: 2600
Heat Index: 37°   Visibility: 6mi
Dew Point: 34°   Wind: 10mph
Humidity: 89%   Direction: 30°NNE
Pressure: 30.26"   Gusts: NA
Location:  41.1442°N, 72.2776°W
Report Text: KGON 211620Z 03009KT 6SM BR FEW012 BKN026 OVC036 03/01 A3026 RMK AO2 T00280011
Loading
Personal Weather Stations






























Interactive Weather Map New forecast layout! Learn more

10-Day Weather Forecast

Advertisements
Track Severe Weather on mobile